Time;durP1;ratioP1;P1;durP2;ratioP2;P2;SDS_P1;SDS_P2;PMS_P1;PMS_P2;Temp;Humidity;BMP_temperature;BMP_pressure;BME280_temperature;BME280_humidity;BME280_pressure;Samples;Min_cycle;Max_cycle;Signal;HPM_P1;HPM_P2
2022/04/06 00:02:59;;;;;;;14.57;8.40;;;;;;;;;;6371261;27;20371;-79
2022/04/06 00:06:00;;;;;;;14.50;6.80;;;;;;;;;;6371947;27;20642;-79
2022/04/06 00:09:00;;;;;;;16.55;11.07;;;;;;;;;;6352908;27;20626;-79
2022/04/06 00:12:00;;;;;;;15.45;8.95;;;;;;;;;;6371401;27;20118;-79
2022/04/06 00:15:01;;;;;;;15.00;8.80;;;;;;;;;;6370671;27;20113;-79
2022/04/06 00:18:01;;;;;;;13.43;8.50;;;;;;;;;;6327460;28;20270;-79
2022/04/06 00:21:02;;;;;;;8.03;5.57;;;;;;;;;;6345615;28;20015;-80
2022/04/06 00:24:02;;;;;;;12.55;8.10;;;;;;;;;;6327976;27;20803;-79
2022/04/06 00:27:03;;;;;;;11.23;6.38;;;;;;;;;;6372906;27;20020;-79
2022/04/06 00:30:03;;;;;;;13.45;8.48;;;;;;;;;;6371189;27;20019;-79
2022/04/06 00:33:04;;;;;;;11.45;7.15;;;;;;;;;;6370769;27;20043;-79
2022/04/06 00:36:04;;;;;;;12.90;7.73;;;;;;;;;;6370891;27;20390;-79
2022/04/06 00:39:05;;;;;;;12.00;5.32;;;;;;;;;;6347561;27;20265;-79
2022/04/06 00:42:05;;;;;;;15.32;8.00;;;;;;;;;;6368849;27;20015;-79
2022/04/06 00:45:06;;;;;;;12.30;6.63;;;;;;;;;;6352216;27;20534;-79
2022/04/06 00:48:06;;;;;;;12.57;6.47;;;;;;;;;;6370822;27;20019;-79
2022/04/06 00:51:06;;;;;;;17.17;7.25;;;;;;;;;;6370596;27;20042;-79
2022/04/06 00:54:07;;;;;;;11.63;7.55;;;;;;;;;;6370146;27;20019;-79
2022/04/06 00:57:07;;;;;;;9.77;4.78;;;;;;;;;;6351632;27;20019;-79
2022/04/06 01:00:08;;;;;;;11.32;6.75;;;;;;;;;;6351812;27;20015;-80
2022/04/06 01:03:09;;;;;;;10.00;6.93;;;;;;;;;;6351451;27;20368;-79
2022/04/06 01:06:09;;;;;;;9.77;5.47;;;;;;;;;;6370375;27;20260;-79
2022/04/06 01:09:10;;;;;;;11.50;6.55;;;;;;;;;;6370180;27;20102;-79
2022/04/06 01:12:10;;;;;;;10.05;7.13;;;;;;;;;;6369758;27;20023;-79
2022/04/06 01:15:11;;;;;;;6.35;4.88;;;;;;;;;;6367937;27;20019;-79
2022/04/06 01:18:11;;;;;;;10.32;6.05;;;;;;;;;;6326218;28;20043;-79
2022/04/06 01:21:12;;;;;;;13.50;6.47;;;;;;;;;;6325867;28;20382;-79
2022/04/06 01:24:12;;;;;;;14.95;7.82;;;;;;;;;;6346127;27;20026;-79
2022/04/06 01:27:14;;;;;;;12.00;8.37;;;;;;;;;;6369764;27;20027;-79
2022/04/06 01:30:14;;;;;;;11.68;7.22;;;;;;;;;;6369775;27;20301;-79
2022/04/06 01:33:14;;;;;;;16.20;10.07;;;;;;;;;;6350923;27;20079;-79
2022/04/06 01:36:14;;;;;;;15.48;8.18;;;;;;;;;;6369211;27;20805;-79
2022/04/06 01:39:14;;;;;;;13.70;7.30;;;;;;;;;;6369084;27;20020;-79
2022/04/06 01:42:16;;;;;;;13.80;8.07;;;;;;;;;;6369366;27;20248;-79
2022/04/06 01:45:16;;;;;;;12.93;9.27;;;;;;;;;;6369333;27;20253;-79
2022/04/06 01:48:17;;;;;;;15.10;10.23;;;;;;;;;;6350619;27;20260;-79
2022/04/06 01:54:35;;;;;;;14.95;9.90;;;;;;;;;;6368432;27;20023;-80
2022/04/06 01:57:36;;;;;;;18.27;10.77;;;;;;;;;;6367275;27;20095;-79
2022/04/06 02:00:37;;;;;;;13.82;9.27;;;;;;;;;;6345242;27;20339;-79
2022/04/06 02:03:38;;;;;;;15.75;8.68;;;;;;;;;;6368624;27;20026;-79
2022/04/06 02:06:38;;;;;;;19.73;13.73;;;;;;;;;;6350131;28;20051;-79
2022/04/06 02:09:39;;;;;;;21.50;9.90;;;;;;;;;;6350630;28;20360;-79
2022/04/06 02:12:40;;;;;;;21.45;12.50;;;;;;;;;;6350912;27;20686;-79
2022/04/06 02:15:40;;;;;;;17.92;10.38;;;;;;;;;;6373797;27;20521;-79
2022/04/06 02:18:41;;;;;;;19.92;13.10;;;;;;;;;;6374465;27;20098;-79
2022/04/06 02:21:41;;;;;;;23.05;16.20;;;;;;;;;;6374473;27;20030;-79
2022/04/06 02:24:41;;;;;;;22.05;13.55;;;;;;;;;;6355555;27;20342;-79
2022/04/06 02:27:45;;;;;;;13.00;9.27;;;;;;;;;;6374083;27;20057;-79
2022/04/06 02:30:46;;;;;;;25.15;15.60;;;;;;;;;;6374498;27;20343;-79
2022/04/06 02:33:47;;;;;;;18.80;10.23;;;;;;;;;;6356133;27;20030;-79
2022/04/06 02:36:47;;;;;;;19.27;10.18;;;;;;;;;;6356365;27;20023;-79
2022/04/06 02:39:49;;;;;;;16.88;8.93;;;;;;;;;;6356374;27;20234;-80
2022/04/06 02:42:49;;;;;;;23.73;14.35;;;;;;;;;;6373577;27;20498;-79
2022/04/06 02:45:50;;;;;;;17.03;11.30;;;;;;;;;;6373377;27;20031;-79
2022/04/06 02:48:50;;;;;;;17.70;9.88;;;;;;;;;;6373454;27;20261;-79
2022/04/06 02:51:50;;;;;;;19.57;10.97;;;;;;;;;;6373227;27;20059;-79
2022/04/06 02:54:52;;;;;;;12.45;8.52;;;;;;;;;;6367378;27;20312;-80
2022/04/06 02:57:52;;;;;;;16.75;10.00;;;;;;;;;;6347726;28;20047;-79
2022/04/06 03:00:54;;;;;;;16.27;11.23;;;;;;;;;;6346474;28;20478;-79
2022/04/06 03:03:54;;;;;;;18.42;10.90;;;;;;;;;;6353905;27;20090;-79
2022/04/06 03:06:54;;;;;;;15.82;10.18;;;;;;;;;;6372841;27;20027;-78
2022/04/06 03:09:55;;;;;;;12.33;6.67;;;;;;;;;;6372800;27;20607;-78
2022/04/06 03:12:55;;;;;;;17.83;10.23;;;;;;;;;;6372694;27;20267;-79
2022/04/06 03:15:55;;;;;;;18.53;11.27;;;;;;;;;;6364255;27;20647;-79
2022/04/06 03:18:57;;;;;;;11.90;8.18;;;;;;;;;;6346967;28;20732;-79
2022/04/06 03:21:57;;;;;;;20.63;12.05;;;;;;;;;;6347028;28;20011;-79
2022/04/06 03:24:57;;;;;;;12.43;9.25;;;;;;;;;;6355489;27;20113;-79
2022/04/06 03:27:57;;;;;;;13.40;9.38;;;;;;;;;;6347143;27;20058;-79
2022/04/06 03:30:57;;;;;;;16.50;10.93;;;;;;;;;;6345641;28;20398;-79
2022/04/06 03:33:58;;;;;;;15.83;10.83;;;;;;;;;;6345365;28;20636;-79
2022/04/06 03:36:58;;;;;;;17.35;11.15;;;;;;;;;;6345585;28;20749;-79
2022/04/06 03:39:58;;;;;;;13.25;8.50;;;;;;;;;;6331815;27;20019;-80
2022/04/06 03:42:59;;;;;;;14.37;9.77;;;;;;;;;;6329923;28;20024;-79
2022/04/06 03:45:59;;;;;;;11.87;7.77;;;;;;;;;;6345742;28;20270;-79
2022/04/06 03:48:59;;;;;;;14.17;9.40;;;;;;;;;;6346080;28;20273;-79
2022/04/06 03:51:59;;;;;;;16.20;9.18;;;;;;;;;;6344850;28;20269;-79
2022/04/06 03:55:00;;;;;;;15.17;9.33;;;;;;;;;;6354469;27;20102;-79
2022/04/06 03:58:00;;;;;;;14.38;9.73;;;;;;;;;;6353266;27;20261;-79
2022/04/06 04:01:00;;;;;;;12.57;6.77;;;;;;;;;;6352982;27;20044;-79
2022/04/06 04:04:04;;;;;;;15.82;9.48;;;;;;;;;;6371438;27;20329;-79
2022/04/06 04:07:06;;;;;;;16.58;7.30;;;;;;;;;;6371546;27;20411;-79
2022/04/06 04:10:08;;;;;;;14.98;8.05;;;;;;;;;;6371881;27;20512;-79
2022/04/06 04:13:08;;;;;;;19.70;10.53;;;;;;;;;;6353293;27;20358;-79
2022/04/06 04:16:08;;;;;;;17.97;9.00;;;;;;;;;;6361653;27;20043;-79
2022/04/06 04:19:08;;;;;;;16.75;10.63;;;;;;;;;;6346666;28;20386;-79
2022/04/06 04:22:09;;;;;;;20.00;10.80;;;;;;;;;;6343213;28;20465;-80
2022/04/06 04:25:10;;;;;;;19.48;10.80;;;;;;;;;;6337542;27;20326;-79
2022/04/06 04:28:10;;;;;;;14.20;7.97;;;;;;;;;;6371077;27;20023;-79
2022/04/06 04:31:10;;;;;;;17.40;9.43;;;;;;;;;;6370553;27;20070;-80
2022/04/06 04:34:11;;;;;;;16.08;8.98;;;;;;;;;;6352210;27;20043;-80
2022/04/06 04:37:11;;;;;;;21.65;12.60;;;;;;;;;;6352281;27;20146;-80
2022/04/06 04:40:12;;;;;;;25.58;13.10;;;;;;;;;;6343894;28;20028;-80
2022/04/06 04:43:12;;;;;;;40.85;19.40;;;;;;;;;;6347610;27;20014;-80
2022/04/06 04:46:12;;;;;;;29.98;18.30;;;;;;;;;;6328805;28;20081;-80
2022/04/06 04:49:13;;;;;;;31.20;13.73;;;;;;;;;;6342229;27;20193;-79
2022/04/06 04:52:13;;;;;;;23.10;11.93;;;;;;;;;;6345004;27;20027;-79
2022/04/06 04:55:13;;;;;;;29.35;14.02;;;;;;;;;;6353775;27;20291;-80
2022/04/06 04:58:13;;;;;;;45.75;20.00;;;;;;;;;;6357980;27;20026;-80
2022/04/06 05:01:14;;;;;;;30.00;13.95;;;;;;;;;;6344656;28;20081;-80
2022/04/06 05:04:14;;;;;;;23.73;11.27;;;;;;;;;;6343084;27;20030;-81
2022/04/06 05:07:14;;;;;;;29.13;14.65;;;;;;;;;;6351573;27;20023;-80
2022/04/06 05:10:15;;;;;;;21.95;12.68;;;;;;;;;;6361486;27;20030;-80
2022/04/06 05:13:17;;;;;;;18.63;9.60;;;;;;;;;;6341449;28;20027;-80
2022/04/06 05:16:18;;;;;;;18.55;8.43;;;;;;;;;;6356415;27;20496;-80
2022/04/06 05:19:18;;;;;;;16.88;7.60;;;;;;;;;;6369971;27;20019;-80
2022/04/06 05:22:18;;;;;;;16.25;9.32;;;;;;;;;;6351441;27;20489;-80
2022/04/06 05:25:18;;;;;;;16.13;9.90;;;;;;;;;;6369441;27;20026;-80
2022/04/06 05:28:19;;;;;;;19.02;10.50;;;;;;;;;;6369405;27;20288;-80
2022/04/06 05:31:19;;;;;;;32.95;14.20;;;;;;;;;;6350848;27;20065;-80
2022/04/06 05:34:19;;;;;;;18.88;11.20;;;;;;;;;;6369402;27;20015;-80
2022/04/06 05:37:19;;;;;;;20.00;10.67;;;;;;;;;;6356414;27;20019;-80
2022/04/06 05:40:20;;;;;;;19.50;11.77;;;;;;;;;;6352296;27;20260;-80
2022/04/06 05:43:20;;;;;;;18.60;11.18;;;;;;;;;;6369548;27;20398;-80
2022/04/06 05:46:20;;;;;;;17.23;10.82;;;;;;;;;;6350450;27;20110;-80
2022/04/06 05:49:20;;;;;;;16.60;8.67;;;;;;;;;;6350255;27;20398;-80
2022/04/06 05:52:21;;;;;;;27.07;12.67;;;;;;;;;;6357210;27;20326;-80
2022/04/06 05:55:21;;;;;;;19.92;10.23;;;;;;;;;;6365260;27;20281;-80
2022/04/06 05:58:21;;;;;;;21.20;11.03;;;;;;;;;;6367745;27;20023;-80
2022/04/06 06:01:21;;;;;;;19.20;11.02;;;;;;;;;;6356380;27;20273;-80
2022/04/06 06:04:22;;;;;;;20.55;11.18;;;;;;;;;;6344089;27;20019;-79
2022/04/06 06:07:22;;;;;;;19.00;10.63;;;;;;;;;;6347454;27;20018;-79
2022/04/06 06:10:22;;;;;;;15.60;9.23;;;;;;;;;;6358272;28;20825;-79
2022/04/06 06:13:23;;;;;;;15.85;7.18;;;;;;;;;;6340978;28;20120;-79
2022/04/06 06:16:24;;;;;;;18.23;9.63;;;;;;;;;;6331105;28;20061;-79
2022/04/06 06:19:26;;;;;;;19.80;10.00;;;;;;;;;;6349179;28;20019;-79
2022/04/06 06:22:26;;;;;;;15.98;8.45;;;;;;;;;;6367711;28;20099;-80
2022/04/06 06:25:26;;;;;;;14.38;8.55;;;;;;;;;;6366858;28;20100;-80
2022/04/06 06:28:27;;;;;;;14.52;8.45;;;;;;;;;;6347732;28;20114;-79
2022/04/06 06:31:28;;;;;;;15.55;8.35;;;;;;;;;;6366716;28;20445;-79
2022/04/06 06:34:28;;;;;;;16.67;9.73;;;;;;;;;;6356329;28;20026;-79
2022/04/06 06:37:28;;;;;;;15.80;8.63;;;;;;;;;;6361546;28;20088;-80
2022/04/06 06:40:28;;;;;;;14.70;7.63;;;;;;;;;;6358506;28;20030;-80
2022/04/06 06:43:29;;;;;;;12.45;7.97;;;;;;;;;;6333687;28;20267;-80
2022/04/06 06:46:31;;;;;;;14.10;8.77;;;;;;;;;;6336326;28;20015;-80
2022/04/06 06:49:31;;;;;;;16.45;8.25;;;;;;;;;;6344347;28;20256;-81
2022/04/06 06:52:34;;;;;;;11.90;7.22;;;;;;;;;;6341038;28;20019;-81
2022/04/06 06:55:34;;;;;;;11.32;6.22;;;;;;;;;;6336534;27;20042;-80
2022/04/06 06:58:35;;;;;;;9.40;6.47;;;;;;;;;;6359826;27;20016;-80
2022/04/06 07:01:35;;;;;;;11.93;7.10;;;;;;;;;;6370999;27;20660;-81
2022/04/06 07:04:36;;;;;;;12.10;7.55;;;;;;;;;;6370937;27;20023;-83
2022/04/06 07:07:52;;;;;;;13.70;8.82;;;;;;;;;;6352090;27;20459;-80
2022/04/06 07:10:52;;;;;;;15.60;6.57;;;;;;;;;;6346037;27;20394;-80
2022/04/06 07:13:52;;;;;;;10.53;6.20;;;;;;;;;;6336698;27;20027;-80
2022/04/06 07:16:53;;;;;;;12.23;6.30;;;;;;;;;;6344497;27;20281;-80
2022/04/06 07:19:54;;;;;;;11.48;7.13;;;;;;;;;;6352224;27;20257;-80
2022/04/06 07:22:55;;;;;;;13.85;7.88;;;;;;;;;;6353433;27;20022;-80
2022/04/06 07:25:55;;;;;;;10.77;7.37;;;;;;;;;;6353354;27;20110;-80
2022/04/06 07:28:55;;;;;;;8.30;5.63;;;;;;;;;;6356359;27;20434;-80
2022/04/06 07:31:55;;;;;;;13.00;7.35;;;;;;;;;;6354677;27;20066;-80
2022/04/06 07:34:56;;;;;;;11.30;6.30;;;;;;;;;;6344544;27;20011;-80
2022/04/06 07:37:57;;;;;;;11.70;5.93;;;;;;;;;;6338820;27;20330;-80
2022/04/06 07:40:57;;;;;;;10.02;6.68;;;;;;;;;;6350214;27;20620;-80
2022/04/06 07:43:58;;;;;;;9.73;6.70;;;;;;;;;;6350646;27;20016;-80
2022/04/06 07:47:00;;;;;;;10.80;5.85;;;;;;;;;;6336489;27;20012;-80
2022/04/06 07:50:03;;;;;;;11.10;6.28;;;;;;;;;;6349340;27;20045;-80
2022/04/06 07:53:03;;;;;;;10.65;5.50;;;;;;;;;;6354780;27;20072;-80
2022/04/06 07:56:05;;;;;;;8.73;5.20;;;;;;;;;;6355791;27;20043;-80
2022/04/06 07:59:05;;;;;;;9.93;5.95;;;;;;;;;;6339700;27;20046;-80
2022/04/06 08:02:05;;;;;;;13.45;6.82;;;;;;;;;;6336383;27;20432;-80
2022/04/06 08:05:06;;;;;;;9.60;4.88;;;;;;;;;;6360712;27;20031;-79
2022/04/06 08:08:06;;;;;;;9.50;5.13;;;;;;;;;;6336111;27;20034;-80
2022/04/06 08:11:08;;;;;;;10.98;6.38;;;;;;;;;;6356632;27;20116;-79
2022/04/06 08:14:08;;;;;;;11.20;6.25;;;;;;;;;;6360003;27;20023;-79
2022/04/06 08:17:08;;;;;;;10.73;6.50;;;;;;;;;;6335550;27;20431;-79
2022/04/06 08:20:09;;;;;;;13.90;7.43;;;;;;;;;;6351062;27;20265;-80
2022/04/06 08:23:09;;;;;;;8.90;6.32;;;;;;;;;;6357503;27;20254;-80
2022/04/06 08:26:10;;;;;;;12.77;8.30;;;;;;;;;;6356040;27;20049;-80
2022/04/06 08:29:10;;;;;;;18.20;10.47;;;;;;;;;;6333793;27;20272;-79
2022/04/06 08:32:10;;;;;;;9.73;6.70;;;;;;;;;;6349505;27;20318;-79
2022/04/06 08:35:12;;;;;;;11.02;6.43;;;;;;;;;;6337817;27;20269;-79
2022/04/06 08:38:14;;;;;;;13.07;8.30;;;;;;;;;;6341174;28;20015;-79
2022/04/06 08:41:15;;;;;;;11.45;7.60;;;;;;;;;;6342106;27;20342;-79
2022/04/06 08:44:17;;;;;;;13.65;6.93;;;;;;;;;;6366931;27;20382;-80
2022/04/06 08:47:17;;;;;;;11.35;7.45;;;;;;;;;;6371290;27;20374;-79
2022/04/06 08:50:18;;;;;;;17.60;8.60;;;;;;;;;;6370384;27;20019;-79
2022/04/06 08:53:20;;;;;;;13.43;7.32;;;;;;;;;;6370101;27;20577;-79
2022/04/06 08:56:22;;;;;;;;;;;;;;;;;;6370378;27;20529;-79
2022/04/06 08:59:22;;;;;;;8.65;6.40;;;;;;;;;;6341404;28;19981;-79
2022/04/06 09:02:23;;;;;;;10.68;6.45;;;;;;;;;;6344186;28;20603;-79
2022/04/06 09:05:25;;;;;;;9.50;6.07;;;;;;;;;;6345656;27;20020;-79
2022/04/06 09:08:41;;;;;;;10.38;6.05;;;;;;;;;;6332570;28;20027;-79
2022/04/06 09:11:42;;;;;;;9.45;6.47;;;;;;;;;;6353025;27;20029;-79
2022/04/06 09:14:42;;;;;;;11.38;7.30;;;;;;;;;;6355169;27;20509;-79
2022/04/06 09:17:46;;;;;;;11.23;5.38;;;;;;;;;;6345394;27;20110;-78
2022/04/06 09:20:47;;;;;;;11.63;7.00;;;;;;;;;;6368363;27;20026;-78
2022/04/06 09:23:48;;;;;;;11.95;6.40;;;;;;;;;;6361802;27;20011;-78
2022/04/06 09:27:15;;;;;;;9.52;6.07;;;;;;;;;;6339479;27;20011;-79
2022/04/06 09:30:16;;;;;;;9.10;5.30;;;;;;;;;;6354085;27;20038;-79
2022/04/06 09:33:18;;;;;;;7.75;4.60;;;;;;;;;;6358216;27;20469;-79
2022/04/06 09:36:19;;;;;;;7.82;5.22;;;;;;;;;;6361129;27;20412;-79
2022/04/06 09:39:19;;;;;;;10.23;6.13;;;;;;;;;;6355888;27;20054;-79
2022/04/06 09:42:26;;;;;;;9.85;5.80;;;;;;;;;;6338219;27;20099;-79
2022/04/06 09:48:52;;;;;;;10.82;6.55;;;;;;;;;;6346273;27;20019;-79
2022/04/06 09:51:53;;;;;;;8.15;6.13;;;;;;;;;;6334638;27;20043;-79
2022/04/06 09:54:54;;;;;;;11.32;6.70;;;;;;;;;;6354066;27;20158;-79
2022/04/06 09:57:55;;;;;;;8.93;5.15;;;;;;;;;;6331360;27;20019;-79
2022/04/06 10:00:56;;;;;;;11.05;5.47;;;;;;;;;;6334818;27;20034;-80
2022/04/06 10:03:58;;;;;;;10.20;6.30;;;;;;;;;;6344322;28;20011;-79
2022/04/06 10:06:59;;;;;;;14.45;5.68;;;;;;;;;;6340340;28;20302;-80
2022/04/06 10:09:59;;;;;;;9.73;5.93;;;;;;;;;;6336953;28;20015;-80
2022/04/06 10:13:01;;;;;;;10.52;6.03;;;;;;;;;;6345985;28;20479;-80
2022/04/06 10:16:02;;;;;;;10.45;6.60;;;;;;;;;;6334332;28;20120;-79
2022/04/06 10:19:03;;;;;;;11.07;5.55;;;;;;;;;;6336341;28;20015;-79
2022/04/06 10:22:12;;;;;;;11.80;5.70;;;;;;;;;;6359750;28;20015;-79
2022/04/06 10:25:17;;;;;;;8.10;5.80;;;;;;;;;;6356270;28;20027;-79
2022/04/06 10:28:18;;;;;;;16.08;5.32;;;;;;;;;;6362752;28;20033;-80
2022/04/06 10:31:20;;;;;;;10.77;5.85;;;;;;;;;;6361356;28;20385;-80
2022/04/06 10:34:22;;;;;;;;;;;;;;;;;;6351188;27;20479;-79
2022/04/06 10:37:22;;;;;;;14.73;6.57;;;;;;;;;;6348242;27;19911;-79
2022/04/06 10:40:22;;;;;;;9.90;5.60;;;;;;;;;;6347699;27;20061;-79
2022/04/06 10:43:40;;;;;;;8.75;5.10;;;;;;;;;;6329037;28;20285;-79
2022/04/06 10:46:40;;;;;;;14.15;8.68;;;;;;;;;;6346550;28;20699;-79
2022/04/06 10:49:40;;;;;;;8.18;5.22;;;;;;;;;;6347702;28;20023;-80
2022/04/06 10:52:42;;;;;;;11.00;5.68;;;;;;;;;;6347917;28;20237;-79
2022/04/06 10:55:55;;;;;;;12.95;7.03;;;;;;;;;;6356896;27;20023;-80
2022/04/06 10:58:55;;;;;;;8.82;4.90;;;;;;;;;;6372601;27;20015;-79
2022/04/06 11:02:14;;;;;;;7.70;4.63;;;;;;;;;;6373187;27;20026;-79
2022/04/06 11:05:34;;;;;;;8.98;4.82;;;;;;;;;;6372914;27;20019;-79
2022/04/06 11:12:14;;;;;;;8.40;4.60;;;;;;;;;;6364473;27;20031;-79
2022/04/06 11:15:14;;;;;;;8.05;4.63;;;;;;;;;;6342473;27;20084;-79
2022/04/06 11:18:33;;;;;;;11.55;6.70;;;;;;;;;;6360720;27;20474;-79
2022/04/06 11:21:34;;;;;;;8.05;4.45;;;;;;;;;;6362997;27;20014;-79
2022/04/06 11:24:36;;;;;;;7.88;4.82;;;;;;;;;;6351337;27;20069;-79
2022/04/06 11:27:37;;;;;;;8.20;4.60;;;;;;;;;;6344452;27;20019;-79
2022/04/06 11:30:42;;;;;;;12.57;5.05;;;;;;;;;;6355431;27;20018;-79
2022/04/06 11:33:43;;;;;;;9.38;5.93;;;;;;;;;;6347872;27;20040;-79
2022/04/06 11:36:43;;;;;;;6.78;3.78;;;;;;;;;;6359230;27;20351;-79
2022/04/06 11:39:44;;;;;;;9.45;4.40;;;;;;;;;;6336961;28;20024;-79
2022/04/06 11:42:48;;;;;;;5.07;3.27;;;;;;;;;;6345413;28;20082;-79
2022/04/06 11:45:48;;;;;;;6.72;4.05;;;;;;;;;;6325729;28;20020;-79
2022/04/06 11:48:48;;;;;;;9.43;3.90;;;;;;;;;;6327588;28;20023;-79
2022/04/06 11:51:48;;;;;;;9.10;3.13;;;;;;;;;;6345938;28;20030;-80
2022/04/06 11:54:50;;;;;;;10.35;5.03;;;;;;;;;;6351083;27;20098;-79
2022/04/06 11:57:50;;;;;;;12.13;6.35;;;;;;;;;;6334824;28;20618;-80
2022/04/06 12:00:57;;;;;;;14.67;7.23;;;;;;;;;;6347467;27;20027;-80
2022/04/06 12:03:59;;;;;;;9.15;4.68;;;;;;;;;;6344011;27;20106;-79
2022/04/06 12:06:59;;;;;;;7.20;3.35;;;;;;;;;;6325292;28;20474;-79
2022/04/06 12:09:59;;;;;;;8.75;3.83;;;;;;;;;;6346182;28;20019;-80
2022/04/06 12:12:59;;;;;;;6.37;3.60;;;;;;;;;;6353091;27;20026;-80
2022/04/06 12:16:00;;;;;;;7.40;4.23;;;;;;;;;;6343779;27;20028;-80
2022/04/06 12:19:01;;;;;;;8.93;4.37;;;;;;;;;;6329005;27;20482;-79
2022/04/06 12:22:07;;;;;;;8.73;3.90;;;;;;;;;;6345403;27;20011;-79
2022/04/06 12:25:25;;;;;;;8.07;4.10;;;;;;;;;;6345424;27;20390;-79
2022/04/06 12:28:26;;;;;;;7.00;3.78;;;;;;;;;;6325902;27;20658;-79
2022/04/06 12:31:33;;;;;;;6.03;3.70;;;;;;;;;;6331007;27;20446;-79
2022/04/06 12:34:35;;;;;;;7.53;3.70;;;;;;;;;;6352269;27;20027;-79
2022/04/06 12:37:36;;;;;;;7.03;4.38;;;;;;;;;;6351847;27;20016;-79
2022/04/06 12:40:38;;;;;;;;;;;;;;;;;;6331714;27;20064;-80
2022/04/06 12:43:45;;;;;;;10.65;5.13;;;;;;;;;;6341488;28;19903;-80
2022/04/06 12:46:50;;;;;;;11.98;5.97;;;;;;;;;;6325352;28;20024;-79
2022/04/06 12:49:51;;;;;;;8.48;4.35;;;;;;;;;;6355213;27;20016;-80
2022/04/06 12:53:07;;;;;;;10.10;5.43;;;;;;;;;;6329923;27;20019;-80
2022/04/06 12:56:11;;;;;;;8.60;4.47;;;;;;;;;;6348129;27;20016;-80
2022/04/06 12:59:11;;;;;;;9.25;4.97;;;;;;;;;;6347567;27;20026;-80
2022/04/06 13:02:19;;;;;;;7.67;4.20;;;;;;;;;;6355878;27;20055;-79
2022/04/06 13:05:20;;;;;;;8.07;4.53;;;;;;;;;;6341182;27;20028;-79
2022/04/06 13:08:22;;;;;;;11.25;5.53;;;;;;;;;;6336608;27;20012;-79
2022/04/06 13:11:22;;;;;;;8.68;4.28;;;;;;;;;;6330115;28;20024;-79
2022/04/06 13:14:23;;;;;;;8.63;3.47;;;;;;;;;;6331679;27;20485;-79
2022/04/06 13:17:24;;;;;;;10.43;5.50;;;;;;;;;;6350088;27;20471;-79
2022/04/06 13:20:24;;;;;;;9.23;4.23;;;;;;;;;;6327725;27;20050;-79
2022/04/06 13:23:25;;;;;;;8.03;4.33;;;;;;;;;;6343525;28;20051;-79
2022/04/06 13:26:25;;;;;;;11.07;5.60;;;;;;;;;;6363569;27;20023;-79
2022/04/06 13:29:25;;;;;;;9.27;5.27;;;;;;;;;;6339044;28;20019;-79
2022/04/06 13:32:26;;;;;;;8.47;4.63;;;;;;;;;;6343939;28;20049;-80
2022/04/06 13:35:26;;;;;;;8.77;4.37;;;;;;;;;;6343709;28;20551;-80
2022/04/06 13:38:28;;;;;;;8.73;4.13;;;;;;;;;;6343446;28;20509;-79
2022/04/06 13:41:28;;;;;;;8.60;4.40;;;;;;;;;;6341027;27;20024;-79
2022/04/06 13:44:32;;;;;;;8.87;3.50;;;;;;;;;;6359435;27;20480;-79
2022/04/06 13:47:32;;;;;;;9.00;4.85;;;;;;;;;;6337369;27;20019;-79
2022/04/06 13:50:33;;;;;;;3.30;2.53;;;;;;;;;;6357820;27;20069;-80
2022/04/06 13:53:33;;;;;;;4.07;2.50;;;;;;;;;;6340363;27;20019;-80
2022/04/06 13:56:33;;;;;;;6.50;3.27;;;;;;;;;;6355208;27;20504;-80
2022/04/06 13:59:34;;;;;;;4.23;1.97;;;;;;;;;;6346448;27;20023;-80
2022/04/06 14:02:34;;;;;;;6.10;2.40;;;;;;;;;;6337364;27;20158;-80
2022/04/06 14:05:34;;;;;;;12.97;5.90;;;;;;;;;;6344699;27;20019;-80
2022/04/06 14:08:35;;;;;;;8.73;4.20;;;;;;;;;;6354774;27;20036;-79
2022/04/06 14:11:36;;;;;;;10.50;5.13;;;;;;;;;;6345286;28;20028;-80
2022/04/06 14:14:36;;;;;;;12.50;5.63;;;;;;;;;;6330254;28;20075;-79
2022/04/06 14:17:36;;;;;;;15.27;5.30;;;;;;;;;;6350288;28;20395;-80
2022/04/06 14:20:37;;;;;;;10.00;4.60;;;;;;;;;;6341889;28;20018;-79
2022/04/06 14:23:40;;;;;;;9.33;3.23;;;;;;;;;;6343748;28;20020;-80
2022/04/06 14:26:40;;;;;;;12.05;6.72;;;;;;;;;;6333284;28;20471;-79
2022/04/06 14:29:41;;;;;;;6.47;3.10;;;;;;;;;;6333890;28;20016;-79
2022/04/06 14:32:41;;;;;;;9.73;5.37;;;;;;;;;;6343102;28;20047;-80
2022/04/06 14:35:41;;;;;;;4.97;2.83;;;;;;;;;;6342144;28;20024;-80
2022/04/06 14:38:41;;;;;;;6.80;2.20;;;;;;;;;;6342621;28;20030;-79
2022/04/06 14:41:42;;;;;;;4.37;2.80;;;;;;;;;;6371617;28;20460;-80
2022/04/06 14:44:42;;;;;;;3.87;2.67;;;;;;;;;;6360789;28;20023;-79
2022/04/06 14:47:42;;;;;;;2.90;2.07;;;;;;;;;;6362787;28;20090;-79
2022/04/06 14:50:43;;;;;;;3.87;2.20;;;;;;;;;;6346658;28;20004;-80
2022/04/06 14:53:43;;;;;;;5.83;2.50;;;;;;;;;;6344654;28;20033;-79
2022/04/06 14:56:43;;;;;;;9.10;3.97;;;;;;;;;;6357255;28;20106;-79
2022/04/06 14:59:44;;;;;;;5.40;2.40;;;;;;;;;;6345545;28;20538;-79
2022/04/06 15:02:44;;;;;;;7.27;3.60;;;;;;;;;;6338707;28;20172;-80
2022/04/06 15:05:46;;;;;;;6.57;3.07;;;;;;;;;;6347544;28;20016;-79
2022/04/06 15:08:47;;;;;;;3.53;2.33;;;;;;;;;;6342018;28;20057;-79
2022/04/06 15:11:47;;;;;;;5.27;2.83;;;;;;;;;;6341946;28;20015;-80
2022/04/06 15:14:47;;;;;;;3.93;2.43;;;;;;;;;;6323361;28;20141;-80
2022/04/06 15:17:47;;;;;;;4.73;2.80;;;;;;;;;;6342532;28;20020;-80
2022/04/06 15:20:48;;;;;;;5.53;3.07;;;;;;;;;;6326166;27;20523;-80
2022/04/06 15:23:48;;;;;;;7.10;3.33;;;;;;;;;;6350716;27;20008;-80
2022/04/06 15:26:49;;;;;;;4.27;2.70;;;;;;;;;;6337348;28;20039;-80
2022/04/06 15:29:49;;;;;;;6.80;3.47;;;;;;;;;;6349442;27;20462;-80
2022/04/06 15:32:49;;;;;;;5.87;3.33;;;;;;;;;;6340567;28;20039;-80
2022/04/06 15:39:09;;;;;;;6.35;3.50;;;;;;;;;;6350555;27;20028;-80
2022/04/06 15:42:09;;;;;;;6.97;4.10;;;;;;;;;;6352284;27;20031;-80
2022/04/06 15:45:09;;;;;;;9.10;4.50;;;;;;;;;;6337445;27;20028;-80
2022/04/06 15:48:10;;;;;;;10.30;4.43;;;;;;;;;;6347212;27;20011;-80
2022/04/06 15:51:10;;;;;;;8.43;5.30;;;;;;;;;;6346900;27;20022;-80
2022/04/06 15:54:11;;;;;;;11.67;5.03;;;;;;;;;;6342466;27;20024;-80
2022/04/06 15:57:12;;;;;;;8.70;5.30;;;;;;;;;;6333872;27;20016;-80
2022/04/06 16:00:13;;;;;;;10.68;6.07;;;;;;;;;;6340349;27;20023;-80
2022/04/06 16:03:14;;;;;;;6.87;4.33;;;;;;;;;;6370858;27;20424;-80
2022/04/06 16:06:14;;;;;;;6.87;4.03;;;;;;;;;;6338896;28;20470;-80
2022/04/06 16:09:14;;;;;;;8.43;5.10;;;;;;;;;;6346613;27;20386;-80
2022/04/06 16:12:17;;;;;;;7.23;5.17;;;;;;;;;;6345911;27;20015;-80
2022/04/06 16:15:17;;;;;;;8.13;4.18;;;;;;;;;;6344375;27;20019;-80
2022/04/06 16:18:17;;;;;;;8.60;5.03;;;;;;;;;;6352816;27;20901;-80
2022/04/06 16:21:17;;;;;;;10.70;5.87;;;;;;;;;;6346934;27;20066;-80
2022/04/06 16:24:18;;;;;;;9.47;5.30;;;;;;;;;;6352282;27;20019;-79
2022/04/06 16:27:18;;;;;;;9.73;5.73;;;;;;;;;;6346680;27;20027;-80
2022/04/06 16:30:18;;;;;;;10.27;4.77;;;;;;;;;;6344651;27;20011;-80
2022/04/06 16:33:20;;;;;;;12.00;4.65;;;;;;;;;;6341321;28;20539;-80
2022/04/06 16:36:20;;;;;;;6.95;4.03;;;;;;;;;;6327323;28;20016;-80
2022/04/06 16:39:21;;;;;;;8.27;3.30;;;;;;;;;;6347521;27;20008;-80
2022/04/06 16:42:21;;;;;;;8.40;3.77;;;;;;;;;;6351481;27;20012;-80
2022/04/06 16:45:21;;;;;;;11.93;5.73;;;;;;;;;;6346333;27;20007;-80
2022/04/06 16:48:21;;;;;;;15.43;6.88;;;;;;;;;;6345881;27;20043;-80
2022/04/06 16:54:41;;;;;;;14.50;6.03;;;;;;;;;;6354839;27;20030;-80
2022/04/06 16:57:42;;;;;;;8.70;4.40;;;;;;;;;;6344794;27;20030;-80
2022/04/06 17:00:42;;;;;;;6.90;4.40;;;;;;;;;;6328235;27;20042;-80
2022/04/06 17:03:43;;;;;;;8.07;4.78;;;;;;;;;;6339514;27;20020;-80
2022/04/06 17:06:43;;;;;;;8.43;3.80;;;;;;;;;;6344376;27;20015;-80
2022/04/06 17:09:43;;;;;;;7.35;3.55;;;;;;;;;;6340259;27;20102;-80
2022/04/06 17:12:44;;;;;;;8.20;3.77;;;;;;;;;;6353624;27;20100;-80
2022/04/06 17:15:44;;;;;;;6.47;3.30;;;;;;;;;;6348721;27;20029;-80
2022/04/06 17:18:48;;;;;;;9.43;4.53;;;;;;;;;;6352488;27;20076;-80
2022/04/06 17:21:48;;;;;;;10.35;4.25;;;;;;;;;;6336716;28;20101;-80
2022/04/06 17:24:48;;;;;;;11.85;5.82;;;;;;;;;;6354374;27;20045;-80
2022/04/06 17:27:52;;;;;;;14.40;7.00;;;;;;;;;;6365361;27;20017;-80
2022/04/06 17:30:56;;;;;;;17.50;7.07;;;;;;;;;;6366039;27;20077;-80
2022/04/06 17:33:57;;;;;;;41.15;15.65;;;;;;;;;;6342546;27;20470;-80
2022/04/06 17:36:57;;;;;;;34.07;13.43;;;;;;;;;;6348281;27;20023;-80
2022/04/06 17:39:57;;;;;;;25.05;11.68;;;;;;;;;;6358994;27;20101;-80
2022/04/06 17:42:58;;;;;;;24.05;9.65;;;;;;;;;;6369741;27;20050;-80
2022/04/06 17:45:58;;;;;;;18.02;9.02;;;;;;;;;;6369646;27;20432;-80
2022/04/06 17:49:02;;;;;;;22.30;11.07;;;;;;;;;;6369562;27;20015;-80
2022/04/06 17:52:04;;;;;;;24.70;13.45;;;;;;;;;;6368189;27;20015;-80
2022/04/06 17:55:04;;;;;;;25.73;14.13;;;;;;;;;;6352596;27;20382;-80
2022/04/06 17:58:04;;;;;;;40.75;22.45;;;;;;;;;;6338530;28;20358;-80
2022/04/06 18:01:05;;;;;;;39.00;22.17;;;;;;;;;;6323501;28;20103;-80
2022/04/06 18:04:06;;;;;;;45.80;22.80;;;;;;;;;;6350882;27;20023;-80
2022/04/06 18:07:06;;;;;;;39.95;20.98;;;;;;;;;;6343635;27;20277;-80
2022/04/06 18:10:07;;;;;;;39.80;22.20;;;;;;;;;;6327843;28;20026;-80
2022/04/06 18:14:08;;;;;;;44.67;27.03;;;;;;;;;;6330751;28;20027;-80